| time (UTC) | temp C | wind direction | speed KPH | gust KPH | rain 1hr cm | rain 24hr cm | rain mn cm | humidity % | barometer mb |
| 20260510183055 | 20 | 193 | 17.7 | 30.6 | 0.00 | 0.00 | 0.00 | 73 | 1010.0 |
| 20260510181615 | 20 | 210 | 19.3 | 30.6 | 0.00 | 0.00 | 0.00 | 74 | 1010.0 |
| 20260510180142 | 20 | 191 | 20.9 | 33.8 | 0.00 | 0.00 | 0.00 | 71 | 1010.1 |
| 20260510174553 | 21 | 225 | 17.7 | 29.0 | 0.00 | 0.00 | 0.00 | 70 | 1010.1 |
| 20260510173040 | 21 | 221 | 19.3 | 33.8 | 0.00 | 0.00 | 0.00 | 68 | 1010.2 |
| 20260510171539 | 21 | 195 | 17.7 | 35.4 | 0.00 | 0.00 | 0.00 | 69 | 1010.1 |
| 20260510170037 | 21 | 201 | 22.5 | 35.4 | 0.00 | 0.00 | 0.00 | 69 | 1010.2 |
| 20260510164541 | 21 | 191 | 20.9 | 37.0 | 0.00 | 0.00 | 0.00 | 69 | 1010.3 |
| 20260510163036 | 21 | 210 | 19.3 | 33.8 | 0.00 | 0.00 | 0.00 | 69 | 1010.3 |
| 20260510161535 | 22 | 180 | 11.3 | 25.7 | 0.00 | 0.00 | 0.00 | 69 | 1010.4 |
| 20260510160039 | 22 | 139 | 14.5 | 29.0 | 0.00 | 0.00 | 0.00 | 68 | 1010.3 |
| 20260510154533 | 21 | 204 | 22.5 | 33.8 | 0.00 | 0.00 | 0.00 | 69 | 1010.5 |
| 20260510153033 | 21 | 205 | 12.9 | 37.0 | 0.00 | 0.00 | 0.00 | 71 | 1010.6 |
| 20260510151529 | 21 | 198 | 9.7 | 30.6 | 0.00 | 0.00 | 0.00 | 75 | 1010.6 |
| 20260510150028 | 21 | 150 | 16.1 | 38.6 | 0.00 | 0.00 | 0.00 | 77 | 1010.8 |
| 20260510144526 | 21 | 191 | 19.3 | 33.8 | 0.00 | 0.00 | 0.00 | 74 | 1011.0 |
| 20260510143027 | 21 | 195 | 14.5 | 30.6 | 0.00 | 0.00 | 0.00 | 73 | 1011.0 |
| 20260510141527 | 21 | 163 | 16.1 | 33.8 | 0.00 | 0.00 | 0.00 | 73 | 1011.2 |
| 20260510140025 | 21 | 191 | 17.7 | 38.6 | 0.00 | 0.00 | 0.00 | 71 | 1011.4 |
| 20260510134519 | 21 | 158 | 16.1 | 30.6 | 0.00 | 0.00 | 0.00 | 71 | 1011.4 |
| 20260510133017 | 21 | 148 | 14.5 | 29.0 | 0.00 | 0.00 | 0.00 | 80 | 1011.7 |
| 20260510131514 | 21 | 163 | 12.9 | 27.4 | 0.00 | 0.00 | 0.00 | 78 | 1011.9 |
| 20260510130012 | 21 | 176 | 12.9 | 27.4 | 0.00 | 0.00 | 0.00 | 79 | 1012.0 |
| 20260510124510 | 21 | 173 | 14.5 | 27.4 | 0.00 | 0.00 | 0.00 | 79 | 1012.3 |
| 20260510123009 | 20 | 197 | 9.7 | 20.9 | 0.00 | 0.00 | 0.00 | 81 | 1012.7 |
| 20260510121506 | 20 | 196 | 16.1 | 25.7 | 0.00 | 0.00 | 0.00 | 84 | 1012.7 |
| 20260510120008 | 20 | 138 | 11.3 | 24.1 | 0.00 | 0.00 | 0.00 | 83 | 1012.9 |
| 20260510114508 | 20 | 200 | 9.7 | 24.1 | 0.00 | 0.00 | 0.00 | 83 | 1013.1 |
| 20260510113004 | 20 | 186 | 14.5 | 25.7 | 0.00 | 0.00 | 0.00 | 80 | 1013.2 |
| 20260510111504 | 20 | 170 | 11.3 | 22.5 | 0.00 | 0.00 | 0.00 | 79 | 1013.3 |
| 20260510110001 | 20 | 108 | 9.7 | 17.7 | 0.00 | 0.00 | 0.00 | 80 | 1013.4 |
| 20260510104602 | 20 | 109 | 9.7 | 17.7 | 0.00 | 0.00 | 0.00 | 76 | 1013.4 |
| 20260510103058 | 20 | 131 | 6.4 | 12.9 | 0.00 | 0.00 | 0.00 | 78 | 1013.4 |
| 20260510101603 | 20 | 108 | 8.0 | 12.9 | 0.00 | 0.00 | 0.00 | 79 | 1013.3 |
| 20260510100125 | 20 | 95 | 6.4 | 11.3 | 0.00 | 0.00 | 0.00 | 82 | 1013.3 |
| 20260510094557 | 20 | 78 | 4.8 | 11.3 | 0.00 | 0.00 | 0.00 | 81 | 1013.5 |
| 20260510093057 | 20 | 65 | 4.8 | 8.0 | 0.00 | 0.00 | 0.00 | 81 | 1013.7 |
| 20260510091555 | 19 | 109 | 6.4 | 11.3 | 0.00 | 0.00 | 0.00 | 83 | 1013.6 |
| 20260510090051 | 18 | 136 | 4.8 | 12.9 | 0.00 | 0.00 | 0.00 | 84 | 1013.8 |
| 20260510084549 | 18 | 115 | 6.4 | 12.9 | 0.00 | 0.00 | 0.00 | 83 | 1013.7 |
| 20260510083054 | 19 | 62 | 6.4 | 11.3 | 0.00 | 0.00 | 0.00 | 81 | 1013.8 |
| 20260510081549 | 20 | 250 | 1.6 | 4.8 | 0.00 | 0.00 | 0.00 | 73 | 1013.9 |
| 20260510080052 | 18 | 251 | 0.0 | 4.8 | 0.00 | 0.00 | 0.00 | 81 | 1014.0 |
| 20260510074541 | 18 | 280 | 0.0 | 4.8 | 0.00 | 0.00 | 0.00 | 86 | 1013.8 |
| 20260510073040 | 18 | 73 | 0.0 | 1.6 | 0.00 | 0.00 | 0.00 | 86 | 1013.9 |
| 20260510071546 | 17 | 54 | 0.0 | 4.8 | 0.00 | 0.00 | 0.00 | 86 | 1013.6 |
| 20260510070034 | 17 | 356 | 1.6 | 6.4 | 0.00 | 0.00 | 0.00 | 88 | 1013.5 |
| 20260510064533 | 17 | 329 | 1.6 | 4.8 | 0.00 | 0.00 | 0.00 | 89 | 1013.7 |
| 20260510063031 | 17 | 340 | 1.6 | 4.8 | 0.00 | 0.00 | 0.00 | 91 | 1013.6 |
| 20260510061540 | 17 | 342 | 0.0 | 3.2 | 0.00 | 0.00 | 0.00 | 90 | 1013.6 |
| 20260510060028 | 16 | 228 | 0.0 | 0.0 | 0.00 | 0.00 | 0.00 | 93 | 1013.5 |
| 20260510054527 | 15 | 228 | 0.0 | 0.0 | 0.00 | 0.00 | 0.00 | 95 | 1013.4 |
| 20260510053125 | 15 | 235 | 0.0 | 3.2 | 0.00 | 0.00 | 0.00 | 94 | 1013.3 |
| 20260510051524 | 15 | 235 | 0.0 | 0.0 | 0.00 | 0.00 | 0.00 | 95 | 1013.3 |
| 20260510050022 | 15 | 235 | 0.0 | 0.0 | 0.00 | 0.00 | 0.00 | 94 | 1013.2 |
| 20260510044520 | 15 | 105 | 0.0 | 0.0 | 0.00 | 0.00 | 0.00 | 93 | 1013.3 |
| 20260510043022 | 16 | 105 | 0.0 | 0.0 | 0.00 | 0.00 | 0.00 | 93 | 1013.1 |
| 20260510041519 | 16 | 106 | 0.0 | 0.0 | 0.00 | 0.00 | 0.00 | 92 | 1013.0 |
| 20260510040118 | 16 | 106 | 0.0 | 0.0 | 0.00 | 0.00 | 0.00 | 92 | 1012.9 |
| 20260510034518 | 16 | 106 | 0.0 | 0.0 | 0.00 | 0.00 | 0.00 | 92 | 1012.8 |
| 20260510033019 | 16 | 106 | 0.0 | 0.0 | 0.00 | 0.00 | 0.00 | 93 | 1012.7 |
| 20260510031533 | 16 | 106 | 0.0 | 0.0 | 0.00 | 0.00 | 0.00 | 92 | 1012.7 |
| 20260510030021 | 16 | 105 | 0.0 | 0.0 | 0.00 | 0.00 | 0.00 | 92 | 1012.7 |
| 20260510024528 | 16 | 105 | 0.0 | 0.0 | 0.00 | 0.00 | 0.00 | 91 | 1012.6 |
| 20260510023016 | 16 | 106 | 0.0 | 0.0 | 0.00 | 0.00 | 0.00 | 91 | 1012.7 |
| 20260510021516 | 16 | 106 | 0.0 | 0.0 | 0.00 | 0.00 | 0.00 | 91 | 1012.5 |
| 20260510020015 | 16 | 105 | 0.0 | 0.0 | 0.00 | 0.00 | 0.00 | 91 | 1012.5 |
| 20260510014513 | 16 | 106 | 0.0 | 0.0 | 0.00 | 0.00 | 0.00 | 91 | 1012.6 |
| 20260510013013 | 16 | 106 | 0.0 | 1.6 | 0.00 | 0.00 | 0.00 | 93 | 1012.5 |
| 20260510011510 | 16 | 248 | 0.0 | 0.0 | 0.00 | 0.00 | 0.00 | 92 | 1012.7 |
| 20260510010008 | 15 | 248 | 0.0 | 0.0 | 0.00 | 0.00 | 0.00 | 91 | 1012.8 |
| 20260510004507 | 15 | 248 | 0.0 | 0.0 | 0.00 | 0.00 | 0.00 | 91 | 1013.0 |
| 20260510003019 | 16 | 248 | 0.0 | 0.0 | 0.00 | 0.00 | 0.00 | 92 | 1012.9 |
| 20260510001504 | 15 | 246 | 0.0 | 0.0 | 0.00 | 0.00 | 0.00 | 92 | 1013.2 |
| 20260510000002 | 16 | 248 | 0.0 | 0.0 | 0.00 | 0.00 | 0.00 | 91 | 1013.4 |
| 20260509234614 | 16 | 248 | 0.0 | 1.6 | 0.00 | 0.00 | 0.00 | 91 | 1013.5 |
| 20260509233058 | 16 | 228 | 0.0 | 1.6 | 0.00 | 0.00 | 0.00 | 92 | 1013.5 |
| 20260509231557 | 16 | 228 | 0.0 | 1.6 | 0.00 | 0.00 | 0.00 | 92 | 1013.6 |
| 20260509230100 | 16 | 235 | 0.0 | 4.8 | 0.00 | 0.00 | 0.00 | 93 | 1013.7 |
| 20260509224554 | 16 | 214 | 3.2 | 8.0 | 0.00 | 0.00 | 0.00 | 92 | 1013.8 |
| 20260509223052 | 16 | 193 | 4.8 | 8.0 | 0.00 | 0.00 | 0.00 | 87 | 1013.6 |
| 20260509221551 | 16 | 212 | 1.6 | 4.8 | 0.00 | 0.00 | 0.00 | 87 | 1013.5 |
| 20260509220052 | 16 | 215 | 3.2 | 9.7 | 0.00 | 0.00 | 0.00 | 86 | 1013.5 |
| 20260509214552 | 16 | 229 | 4.8 | 9.7 | 0.00 | 0.00 | 0.00 | 87 | 1013.7 |
| 20260509213048 | 16 | 217 | 6.4 | 12.9 | 0.00 | 0.00 | 0.00 | 89 | 1013.5 |
| 20260509211546 | 16 | 198 | 3.2 | 8.0 | 0.00 | 0.00 | 0.00 | 90 | 1013.4 |
| 20260509210049 | 17 | 172 | 1.6 | 6.4 | 0.00 | 0.00 | 0.00 | 89 | 1013.4 |
| 20260509204544 | 17 | 158 | 1.6 | 9.7 | 0.00 | 0.00 | 0.00 | 89 | 1013.3 |
| 20260509203042 | 17 | 180 | 3.2 | 11.3 | 0.00 | 0.00 | 0.00 | 90 | 1013.2 |
| 20260509201539 | 17 | 205 | 6.4 | 12.9 | 0.00 | 0.00 | 0.00 | 88 | 1013.0 |
| 20260509200037 | 17 | 195 | 6.4 | 16.1 | 0.00 | 0.00 | 0.00 | 87 | 1012.7 |
| 20260509194537 | 17 | 217 | 6.4 | 19.3 | 0.00 | 0.00 | 0.00 | 87 | 1012.5 |
| 20260509193033 | 17 | 194 | 8.0 | 19.3 | 0.00 | 0.00 | 0.00 | 88 | 1012.5 |
| 20260509191532 | 17 | 150 | 6.4 | 12.9 | 0.00 | 0.00 | 0.00 | 89 | 1012.4 |
| 20260509190032 | 17 | 159 | 8.0 | 19.3 | 0.00 | 0.00 | 0.00 | 89 | 1012.3 |
| 20260509184529 | 17 | 177 | 9.7 | 22.5 | 0.00 | 0.00 | 0.00 | 89 | 1011.9 |